createdAt,value
2023-03-07T00:00:15.811Z,24.63
2023-03-07T00:02:44.714Z,14.98
2023-03-07T00:05:14.893Z,25.15
2023-03-07T00:07:43.458Z,17.02
2023-03-07T00:10:13.661Z,16.80
2023-03-07T00:12:42.232Z,13.95
2023-03-07T00:15:12.033Z,22.23
2023-03-07T00:17:40.842Z,23.65
2023-03-07T00:20:14.368Z,22.77
2023-03-07T00:22:43.678Z,22.65
2023-03-07T00:25:14.985Z,24.15
2023-03-07T00:27:43.485Z,21.48
2023-03-07T00:30:13.038Z,20.13
2023-03-07T00:32:41.673Z,25.30
2023-03-07T00:35:10.577Z,23.73
2023-03-07T00:37:39.841Z,24.35
2023-03-07T00:40:10.833Z,19.73
2023-03-07T00:42:40.455Z,20.58
2023-03-07T00:45:10.884Z,21.98
2023-03-07T00:47:39.164Z,30.30
2023-03-07T00:50:08.552Z,18.83
2023-03-07T00:52:37.413Z,24.83
2023-03-07T00:55:06.744Z,24.33
2023-03-07T00:57:35.306Z,24.17
2023-03-07T01:00:07.226Z,26.83
2023-03-07T01:02:35.787Z,21.17
2023-03-07T01:05:04.933Z,28.17
2023-03-07T01:07:33.517Z,23.67
2023-03-07T01:10:02.209Z,27.58
2023-03-07T01:12:30.803Z,20.33
2023-03-07T01:14:59.342Z,26.13
2023-03-07T01:17:28.928Z,27.85
2023-03-07T01:19:57.459Z,21.55
2023-03-07T01:22:25.918Z,25.67
2023-03-07T01:24:54.431Z,19.50
2023-03-07T01:27:22.668Z,27.38
2023-03-07T01:29:51.355Z,25.83
2023-03-07T01:32:19.970Z,27.52
2023-03-07T01:34:49.556Z,21.83
2023-03-07T01:37:18.858Z,22.83
2023-03-07T01:39:48.070Z,24.48
2023-03-07T01:42:18.783Z,25.60
2023-03-07T01:45:03.563Z,25.67
2023-03-07T01:47:41.180Z,30.35
2023-03-07T01:50:15.946Z,25.08
2023-03-07T01:52:50.852Z,19.23
2023-03-07T01:55:23.604Z,30.33
2023-03-07T01:57:57.627Z,21.17
2023-03-07T02:00:29.773Z,23.15
2023-03-07T02:03:09.660Z,19.77
2023-03-07T02:05:46.421Z,32.90
2023-03-07T02:08:17.699Z,24.40
2023-03-07T02:10:46.658Z,28.40
2023-03-07T02:13:15.305Z,28.00
2023-03-07T02:15:44.871Z,23.73
2023-03-07T02:18:19.111Z,19.52
2023-03-07T02:21:00.537Z,20.15
2023-03-07T02:23:41.597Z,23.20
2023-03-07T02:26:17.720Z,18.05
2023-03-07T02:28:48.917Z,21.30
2023-03-07T02:31:18.641Z,17.02
2023-03-07T02:33:47.345Z,18.40
2023-03-07T02:36:21.493Z,16.35
2023-03-07T02:39:02.616Z,15.15
2023-03-07T02:41:34.486Z,22.13
2023-03-07T02:44:09.704Z,15.02
2023-03-07T02:46:38.346Z,15.35
2023-03-07T02:49:06.818Z,17.42
2023-03-07T02:51:35.426Z,11.90
2023-03-07T02:54:04.083Z,16.33
2023-03-07T02:56:32.811Z,14.60
2023-03-07T02:59:01.293Z,13.85
2023-03-07T03:01:31.585Z,16.67
2023-03-07T03:04:00.454Z,13.38
2023-03-07T03:06:28.668Z,15.27
2023-03-07T03:08:56.884Z,16.92
2023-03-07T03:11:25.609Z,15.05
2023-03-07T03:13:54.063Z,14.98
2023-03-07T03:16:23.550Z,12.30
2023-03-07T03:18:53.125Z,12.43
2023-03-07T03:21:21.697Z,12.73
2023-03-07T03:23:50.241Z,14.65
2023-03-07T03:26:19.141Z,14.40
2023-03-07T03:28:47.652Z,10.93
2023-03-07T03:31:16.749Z,15.63
2023-03-07T03:33:46.067Z,11.27
2023-03-07T03:36:18.114Z,13.02
2023-03-07T03:38:50.222Z,13.52
2023-03-07T03:41:18.462Z,15.20
2023-03-07T03:43:48.876Z,15.25
2023-03-07T03:46:19.569Z,19.85
2023-03-07T03:48:53.281Z,13.35
2023-03-07T03:51:25.621Z,13.93
2023-03-07T03:53:57.506Z,21.17
2023-03-07T03:56:27.748Z,16.13
2023-03-07T03:58:57.850Z,17.50
2023-03-07T04:01:29.416Z,17.77
2023-03-07T04:03:59.494Z,13.20
2023-03-07T04:06:32.421Z,15.55
2023-03-07T04:09:02.295Z,13.77
2023-03-07T04:11:30.787Z,10.68
2023-03-07T04:13:59.908Z,16.52
2023-03-07T04:16:28.767Z,10.55
2023-03-07T04:18:57.507Z,17.30
2023-03-07T04:21:26.120Z,17.17
2023-03-07T04:23:58.557Z,14.40
2023-03-07T04:26:32.445Z,12.25
2023-03-07T04:29:01.191Z,17.80
2023-03-07T04:31:36.035Z,17.90
2023-03-07T04:34:05.923Z,13.05
2023-03-07T04:36:34.809Z,11.77
2023-03-07T04:39:05.253Z,13.00
2023-03-07T04:41:34.627Z,18.88
2023-03-07T04:44:10.638Z,17.90
2023-03-07T04:46:39.236Z,15.70
2023-03-07T04:49:07.772Z,13.57
2023-03-07T04:51:36.690Z,9.10
2023-03-07T04:54:06.344Z,18.63
2023-03-07T04:56:35.357Z,16.83
2023-03-07T04:59:04.569Z,7.95
2023-03-07T05:01:33.197Z,13.55
2023-03-07T05:04:02.627Z,17.30
2023-03-07T05:06:31.281Z,16.13
2023-03-07T05:08:59.867Z,17.85
2023-03-07T05:11:30.019Z,21.40
2023-03-07T05:13:58.570Z,16.05
2023-03-07T05:16:27.889Z,6.25
2023-03-07T05:18:56.474Z,16.85
2023-03-07T05:21:25.132Z,16.40
2023-03-07T05:23:53.697Z,15.52
2023-03-07T05:26:22.355Z,16.45
2023-03-07T05:28:51.987Z,21.50
2023-03-07T05:31:20.504Z,19.27
2023-03-07T05:33:48.896Z,18.33
2023-03-07T05:36:17.641Z,15.02
2023-03-07T05:38:46.292Z,12.02
2023-03-07T05:41:14.870Z,16.95
2023-03-07T05:43:45.385Z,14.13
2023-03-07T05:46:15.652Z,12.13
2023-03-07T05:48:44.413Z,12.30
2023-03-07T05:51:12.894Z,14.55
2023-03-07T05:53:41.736Z,18.85
2023-03-07T05:56:10.415Z,15.57
2023-03-07T05:58:39.784Z,17.98
2023-03-07T06:01:08.469Z,18.33
2023-03-07T06:03:38.461Z,18.27
2023-03-07T06:06:07.632Z,6.72
2023-03-07T06:08:36.176Z,16.55
2023-03-07T06:11:04.584Z,17.83
2023-03-07T06:13:33.421Z,9.18
2023-03-07T06:16:02.021Z,12.13
2023-03-07T06:18:30.605Z,15.48
2023-03-07T06:21:02.210Z,18.33
2023-03-07T06:23:36.066Z,15.00
2023-03-07T06:26:10.245Z,17.70
2023-03-07T06:28:39.394Z,13.52
2023-03-07T06:31:10.617Z,16.85
2023-03-07T06:33:39.288Z,18.75
2023-03-07T06:36:11.936Z,14.75
2023-03-07T06:38:42.557Z,15.15
2023-03-07T06:41:12.048Z,17.23
2023-03-07T06:43:41.370Z,11.88
2023-03-07T06:46:09.970Z,20.15
2023-03-07T06:48:42.075Z,9.98
2023-03-07T06:51:16.258Z,13.55
2023-03-07T06:53:47.288Z,20.40
2023-03-07T06:56:15.808Z,17.58
2023-03-07T06:58:45.233Z,11.57
2023-03-07T07:01:19.473Z,19.63
2023-03-07T07:03:51.024Z,18.00
2023-03-07T07:06:21.492Z,13.10
2023-03-07T07:08:50.838Z,15.18
2023-03-07T07:11:19.451Z,18.58
2023-03-07T07:13:48.106Z,20.48
2023-03-07T07:16:20.672Z,15.75
2023-03-07T07:18:51.926Z,17.98
2023-03-07T07:21:22.589Z,10.75
2023-03-07T07:23:50.822Z,22.45
2023-03-07T07:26:19.847Z,15.00
2023-03-07T07:28:48.321Z,11.45
2023-03-07T07:31:16.904Z,18.30
2023-03-07T07:33:46.521Z,12.30
2023-03-07T07:36:16.648Z,16.15
2023-03-07T07:38:46.965Z,16.85
2023-03-07T07:41:15.755Z,25.95
2023-03-07T07:43:46.573Z,22.90
2023-03-07T07:46:28.308Z,15.70
2023-03-07T07:48:57.194Z,11.25
2023-03-07T07:51:28.083Z,11.38
2023-03-07T07:53:57.832Z,16.98
2023-03-07T07:56:26.077Z,17.30
2023-03-07T07:58:54.723Z,12.77
2023-03-07T08:01:25.832Z,13.35
2023-03-07T08:03:54.729Z,7.60
2023-03-07T08:06:25.483Z,18.65
2023-03-07T08:08:54.298Z,16.20
2023-03-07T08:11:24.959Z,10.80
2023-03-07T08:13:54.035Z,9.75
2023-03-07T08:16:24.142Z,16.63
2023-03-07T08:18:55.808Z,10.32
2023-03-07T08:21:25.343Z,14.10
2023-03-07T08:23:55.052Z,17.52
2023-03-07T08:26:25.365Z,9.52
2023-03-07T08:28:53.906Z,9.73
2023-03-07T08:31:24.573Z,8.18
2023-03-07T08:33:53.692Z,10.52
2023-03-07T08:36:22.197Z,6.20
2023-03-07T08:38:52.434Z,7.85
2023-03-07T08:41:22.226Z,13.25
2023-03-07T08:43:51.884Z,14.57
2023-03-07T08:46:20.217Z,15.18
2023-03-07T08:48:48.943Z,13.20
2023-03-07T08:51:19.230Z,13.02
2023-03-07T08:53:47.947Z,7.28
2023-03-07T08:56:19.196Z,15.95
2023-03-07T08:58:47.738Z,9.13
2023-03-07T09:01:17.284Z,15.18
2023-03-07T09:03:45.930Z,15.57
2023-03-07T09:06:18.815Z,8.10
2023-03-07T09:08:48.288Z,9.60
2023-03-07T09:11:17.842Z,10.13
2023-03-07T09:13:52.634Z,13.73
2023-03-07T09:16:24.604Z,11.50
2023-03-07T09:18:53.308Z,10.25
2023-03-07T09:21:21.628Z,10.27
2023-03-07T09:23:50.008Z,11.10
2023-03-07T09:26:18.459Z,9.07
2023-03-07T09:28:46.953Z,11.90
2023-03-07T09:31:17.058Z,10.63
2023-03-07T09:33:47.233Z,7.35
2023-03-07T09:36:18.005Z,7.70
2023-03-07T09:38:47.173Z,7.40
2023-03-07T09:41:57.595Z,7.20
2023-03-07T09:44:50.297Z,8.82
2023-03-07T09:48:53.440Z,9.85
2023-03-07T09:53:58.838Z,11.38
2023-03-07T09:56:33.499Z,8.00
2023-03-07T10:01:55.747Z,6.82
2023-03-07T10:04:34.156Z,9.27
2023-03-07T10:07:05.935Z,10.85
2023-03-07T10:09:35.303Z,9.52
2023-03-07T10:12:37.511Z,11.10
2023-03-07T10:15:24.436Z,9.88
2023-03-07T10:18:09.876Z,5.07
2023-03-07T10:20:46.780Z,8.65
2023-03-07T10:23:38.111Z,9.05
2023-03-07T10:26:12.641Z,9.52
2023-03-07T10:28:43.633Z,7.60
2023-03-07T10:31:23.655Z,8.15
2023-03-07T10:33:54.491Z,5.18
2023-03-07T10:36:38.342Z,5.93
2023-03-07T10:39:21.549Z,6.57
2023-03-07T10:41:50.272Z,7.70
2023-03-07T10:44:21.614Z,4.53
2023-03-07T10:46:56.920Z,6.43
2023-03-07T10:49:29.092Z,8.73
2023-03-07T10:52:04.164Z,9.82
2023-03-07T10:54:36.591Z,9.18
2023-03-07T10:57:12.270Z,7.45
2023-03-07T10:59:44.001Z,8.60
2023-03-07T11:02:32.333Z,6.60
2023-03-07T11:05:01.065Z,10.85
2023-03-07T11:07:32.315Z,6.57
2023-03-07T11:10:23.551Z,6.25
2023-03-07T11:12:52.223Z,6.97
2023-03-07T11:15:24.580Z,6.22
2023-03-07T11:17:54.515Z,7.68
2023-03-07T11:20:25.372Z,5.90
2023-03-07T11:23:23.293Z,5.05
2023-03-07T11:25:54.696Z,6.80
2023-03-07T11:28:30.935Z,10.73
2023-03-07T11:31:14.752Z,9.52
2023-03-07T11:33:59.764Z,7.15
2023-03-07T11:36:33.399Z,16.15
2023-03-07T11:39:08.248Z,6.72
2023-03-07T11:44:26.452Z,7.68
2023-03-07T11:47:15.260Z,7.95
2023-03-07T11:49:58.367Z,8.75
2023-03-07T11:52:52.962Z,11.55
2023-03-07T11:55:31.647Z,7.80
2023-03-07T11:58:20.682Z,10.38
2023-03-07T12:01:06.213Z,11.95
2023-03-07T12:04:03.008Z,9.32
2023-03-07T12:06:39.792Z,11.25
2023-03-07T12:09:24.707Z,9.60
2023-03-07T12:12:10.982Z,10.35
2023-03-07T12:14:51.125Z,11.85
2023-03-07T12:17:43.526Z,11.00
2023-03-07T12:20:29.660Z,6.82
2023-03-07T12:23:17.206Z,10.77
2023-03-07T12:25:50.485Z,10.98
2023-03-07T12:28:27.918Z,8.85
2023-03-07T12:31:08.348Z,14.07
2023-03-07T12:33:55.113Z,10.05
2023-03-07T12:36:34.096Z,10.50
2023-03-07T12:39:14.131Z,11.68
2023-03-07T12:41:59.474Z,12.77
2023-03-07T12:44:36.851Z,9.98
2023-03-07T12:47:17.623Z,10.23
2023-03-07T12:49:54.697Z,7.93
2023-03-07T12:52:36.530Z,9.35
2023-03-07T12:55:17.785Z,9.15
2023-03-07T12:57:54.419Z,8.45
2023-03-07T13:00:24.456Z,11.65
2023-03-07T13:03:02.140Z,8.25
2023-03-07T13:05:38.111Z,13.77
2023-03-07T13:08:08.978Z,10.05
2023-03-07T13:10:38.007Z,10.68
2023-03-07T13:13:56.908Z,11.98
2023-03-07T13:16:40.865Z,13.90
2023-03-07T13:19:44.685Z,11.77
2023-03-07T13:22:58.127Z,8.90
2023-03-07T13:26:15.020Z,10.65
2023-03-07T13:28:51.235Z,9.82
2023-03-07T13:31:45.601Z,9.57
2023-03-07T13:34:55.786Z,10.25
2023-03-07T13:37:55.411Z,9.93
2023-03-07T13:40:52.844Z,14.52
2023-03-07T13:44:01.514Z,9.88
2023-03-07T13:46:51.063Z,11.55
2023-03-07T13:49:46.320Z,12.07
2023-03-07T13:52:45.722Z,15.80
2023-03-07T13:55:41.801Z,9.52
2023-03-07T13:58:24.708Z,10.13
2023-03-07T14:00:58.860Z,9.82
2023-03-07T14:03:36.778Z,9.07
2023-03-07T14:06:12.584Z,11.82
2023-03-07T14:08:41.820Z,12.38
2023-03-07T14:11:22.979Z,14.40
2023-03-07T14:14:28.720Z,10.52
2023-03-07T14:17:15.412Z,17.75
2023-03-07T14:19:55.896Z,16.40
2023-03-07T14:22:42.526Z,16.00
2023-03-07T14:25:22.899Z,8.25
2023-03-07T14:27:57.964Z,12.55
2023-03-07T14:30:28.432Z,6.88
2023-03-07T14:32:56.959Z,10.23
2023-03-07T14:35:42.029Z,8.68
2023-03-07T14:38:18.663Z,13.88
2023-03-07T14:41:09.683Z,22.00
2023-03-07T14:43:54.553Z,13.27
2023-03-07T14:46:34.618Z,10.18
2023-03-07T14:49:16.877Z,9.85
2023-03-07T14:51:46.786Z,9.10
2023-03-07T14:54:19.385Z,7.10
2023-03-07T14:56:51.171Z,14.25
2023-03-07T14:59:28.606Z,6.68
2023-03-07T15:02:00.120Z,8.35
2023-03-07T15:04:31.295Z,7.13
2023-03-07T15:07:04.413Z,6.65
2023-03-07T15:09:34.546Z,9.38
2023-03-07T15:12:08.293Z,11.63
2023-03-07T15:14:45.410Z,10.40
2023-03-07T15:17:18.164Z,8.55
2023-03-07T15:19:49.762Z,10.88
2023-03-07T15:22:25.021Z,8.88
2023-03-07T15:24:54.661Z,6.75
2023-03-07T15:27:27.970Z,8.25
2023-03-07T15:29:56.986Z,7.85
2023-03-07T15:32:35.248Z,9.10
2023-03-07T15:35:15.322Z,8.20
2023-03-07T15:37:56.190Z,9.48
2023-03-07T15:40:29.882Z,9.18
2023-03-07T15:43:02.229Z,11.43
2023-03-07T15:45:34.967Z,7.32
2023-03-07T15:48:11.085Z,8.15
2023-03-07T15:50:39.659Z,11.55
2023-03-07T15:53:19.374Z,8.70
2023-03-07T15:55:57.603Z,10.13
2023-03-07T15:58:27.031Z,11.93
2023-03-07T16:01:18.504Z,9.85
2023-03-07T16:03:53.774Z,12.77
2023-03-07T16:06:37.009Z,9.43
2023-03-07T16:09:08.338Z,12.77
2023-03-07T16:11:38.165Z,7.28
2023-03-07T16:14:07.012Z,12.43
2023-03-07T16:16:35.617Z,9.18
2023-03-07T16:19:04.134Z,14.38
2023-03-07T16:21:32.659Z,13.70
2023-03-07T16:24:01.240Z,10.95
2023-03-07T16:26:32.022Z,12.63
2023-03-07T16:29:01.547Z,7.03
2023-03-07T16:31:30.159Z,11.43
2023-03-07T16:33:58.758Z,11.65
2023-03-07T16:36:27.399Z,11.82
2023-03-07T16:38:55.867Z,16.67
2023-03-07T16:41:24.354Z,20.73
2023-03-07T16:43:57.109Z,9.63
2023-03-07T16:46:26.558Z,8.20
2023-03-07T16:48:54.852Z,8.20
2023-03-07T16:51:26.026Z,11.52
2023-03-07T16:53:56.645Z,14.38
2023-03-07T16:56:29.501Z,8.93
2023-03-07T16:59:01.034Z,11.55
2023-03-07T17:01:29.607Z,11.75
2023-03-07T17:03:57.803Z,10.60
2023-03-07T17:06:38.401Z,11.63
2023-03-07T17:09:09.695Z,9.07
2023-03-07T17:11:39.945Z,16.67
2023-03-07T17:14:12.289Z,8.70
2023-03-07T17:16:45.003Z,8.63
2023-03-07T17:19:25.904Z,13.73
2023-03-07T17:21:54.614Z,9.40
2023-03-07T17:24:23.092Z,9.18
2023-03-07T17:26:53.466Z,10.70
2023-03-07T17:29:30.112Z,12.10
2023-03-07T17:31:58.534Z,12.82
2023-03-07T17:34:29.581Z,7.22
2023-03-07T17:36:59.032Z,7.85
2023-03-07T17:39:28.395Z,11.32
2023-03-07T17:41:56.828Z,12.55
2023-03-07T17:44:26.372Z,9.60
2023-03-07T17:46:55.443Z,9.60
2023-03-07T17:49:24.291Z,8.07
2023-03-07T17:51:53.012Z,4.90
2023-03-07T17:54:21.602Z,5.20
2023-03-07T17:56:50.144Z,10.32
2023-03-07T17:59:18.680Z,9.95
2023-03-07T18:01:48.297Z,13.25
2023-03-07T18:04:16.986Z,8.45
2023-03-07T18:06:45.543Z,8.68
2023-03-07T18:09:15.232Z,7.75
2023-03-07T18:11:43.753Z,11.30
2023-03-07T18:14:12.653Z,8.95
2023-03-07T18:16:43.722Z,9.82
2023-03-07T18:19:25.403Z,11.98
2023-03-07T18:21:54.903Z,11.70
2023-03-07T18:24:26.335Z,9.07
2023-03-07T18:26:55.753Z,15.88
2023-03-07T18:29:25.050Z,7.95
2023-03-07T18:31:53.892Z,8.60
2023-03-07T18:34:24.894Z,5.13
2023-03-07T18:36:54.291Z,8.80
2023-03-07T18:39:23.633Z,14.45
2023-03-07T18:41:52.370Z,9.45
2023-03-07T18:44:20.935Z,10.70
2023-03-07T18:46:49.520Z,8.82
2023-03-07T18:49:18.150Z,10.68
2023-03-07T18:51:48.440Z,7.18
2023-03-07T18:54:17.424Z,13.02
2023-03-07T18:56:47.778Z,12.38
2023-03-07T18:59:17.274Z,11.70
2023-03-07T19:01:50.067Z,9.00
2023-03-07T19:04:19.066Z,13.02
2023-03-07T19:06:49.823Z,6.53
2023-03-07T19:09:20.806Z,10.13
2023-03-07T19:11:49.443Z,9.25
2023-03-07T19:14:17.977Z,7.72
2023-03-07T19:16:46.810Z,10.23
2023-03-07T19:19:15.374Z,9.00
2023-03-07T19:21:43.939Z,8.75
2023-03-07T19:24:13.841Z,11.95
2023-03-07T19:26:43.261Z,7.35
2023-03-07T19:29:12.978Z,9.05
2023-03-07T19:31:43.677Z,16.30
2023-03-07T19:34:12.470Z,6.35
2023-03-07T19:36:42.345Z,11.43
2023-03-07T19:39:15.034Z,11.50
2023-03-07T19:41:47.821Z,8.95
2023-03-07T19:44:16.945Z,11.13
2023-03-07T19:46:47.054Z,11.02
2023-03-07T19:49:16.315Z,12.55
2023-03-07T19:51:44.607Z,13.52
2023-03-07T19:54:14.936Z,15.18
2023-03-07T19:56:45.604Z,10.13
2023-03-07T19:59:14.846Z,10.93
2023-03-07T20:01:43.678Z,10.07
2023-03-07T20:04:13.316Z,11.63
2023-03-07T20:06:43.129Z,12.50
2023-03-07T20:09:13.141Z,12.07
2023-03-07T20:11:43.220Z,12.73
2023-03-07T20:14:14.405Z,11.65
2023-03-07T20:16:43.335Z,12.50
2023-03-07T20:19:11.862Z,9.32
2023-03-07T20:21:42.385Z,10.23
2023-03-07T20:24:10.795Z,12.98
2023-03-07T20:26:40.841Z,7.60
2023-03-07T20:29:10.669Z,12.70
2023-03-07T20:31:40.988Z,14.50
2023-03-07T20:34:09.782Z,9.73
2023-03-07T20:36:39.316Z,11.05
2023-03-07T20:39:13.064Z,10.23
2023-03-07T20:41:42.815Z,13.55
2023-03-07T20:44:14.205Z,8.63
2023-03-07T20:46:44.768Z,11.73
2023-03-07T20:49:14.827Z,12.50
2023-03-07T20:51:44.215Z,12.13
2023-03-07T20:54:15.472Z,13.45
2023-03-07T20:56:45.496Z,12.52
2023-03-07T20:59:16.620Z,10.90
2023-03-07T21:01:46.697Z,12.05
2023-03-07T21:04:17.737Z,9.13
2023-03-07T21:06:48.061Z,11.82
2023-03-07T21:09:17.934Z,13.60
2023-03-07T21:11:49.070Z,10.50
2023-03-07T21:14:19.580Z,10.30
2023-03-07T21:16:49.350Z,10.70
2023-03-07T21:19:18.974Z,13.65
2023-03-07T21:21:47.485Z,7.85
2023-03-07T21:24:16.470Z,16.25
2023-03-07T21:26:52.105Z,14.48
2023-03-07T21:29:20.416Z,13.63
2023-03-07T21:31:50.148Z,12.25
2023-03-07T21:34:18.808Z,10.52
2023-03-07T21:36:47.898Z,11.35
2023-03-07T21:39:16.475Z,11.85
2023-03-07T21:41:45.093Z,10.55
2023-03-07T21:44:14.427Z,14.15
2023-03-07T21:46:42.734Z,13.57
2023-03-07T21:49:13.053Z,7.35
2023-03-07T21:51:41.332Z,12.30
2023-03-07T21:54:10.063Z,16.02
2023-03-07T21:56:38.833Z,10.88
2023-03-07T21:59:07.796Z,12.98
2023-03-07T22:01:36.391Z,10.05
2023-03-07T22:04:04.933Z,8.18
2023-03-07T22:06:36.690Z,16.38
2023-03-07T22:09:05.684Z,7.80
2023-03-07T22:11:34.190Z,15.43
2023-03-07T22:14:02.732Z,14.73
2023-03-07T22:16:31.231Z,18.10
2023-03-07T22:18:59.515Z,8.82
2023-03-07T22:21:27.926Z,12.60
2023-03-07T22:24:00.978Z,9.45
2023-03-07T22:26:31.598Z,14.70
2023-03-07T22:29:00.375Z,17.23
2023-03-07T22:31:28.661Z,14.00
2023-03-07T22:33:58.746Z,13.25
2023-03-07T22:36:27.258Z,13.40
2023-03-07T22:38:57.372Z,8.05
2023-03-07T22:41:26.517Z,10.32
2023-03-07T22:43:55.038Z,13.63
2023-03-07T22:46:23.929Z,11.30
2023-03-07T22:48:57.552Z,10.98
2023-03-07T22:51:27.046Z,8.73
2023-03-07T22:53:56.996Z,12.65
2023-03-07T22:56:28.055Z,10.13
2023-03-07T22:58:56.680Z,12.07
2023-03-07T23:01:27.858Z,16.52
2023-03-07T23:03:58.698Z,14.30
2023-03-07T23:06:30.363Z,12.13
2023-03-07T23:09:01.884Z,13.88
2023-03-07T23:11:32.907Z,9.23
2023-03-07T23:14:02.001Z,12.40
2023-03-07T23:16:32.535Z,7.88
2023-03-07T23:19:01.361Z,11.52
2023-03-07T23:21:33.095Z,7.85
2023-03-07T23:24:04.968Z,21.75
2023-03-07T23:26:35.917Z,14.23
2023-03-07T23:29:05.670Z,11.02
2023-03-07T23:31:36.599Z,11.00
2023-03-07T23:34:07.526Z,10.55
2023-03-07T23:36:36.305Z,6.13
2023-03-07T23:39:06.705Z,12.27
2023-03-07T23:41:35.405Z,11.50
2023-03-07T23:44:04.434Z,11.55
2023-03-07T23:46:33.554Z,10.30
2023-03-07T23:49:02.107Z,8.75
2023-03-07T23:51:30.845Z,9.05
2023-03-07T23:53:59.373Z,9.40
2023-03-07T23:56:28.976Z,8.48
2023-03-07T23:58:57.255Z,9.65
